sensor_id;sensor_type;location;lat;lon;timestamp;temperature;humidity
17405;DHT22;8820;54.604;18.226;2022-10-31T16:37:44;21.50;81.30
17405;DHT22;8820;54.604;18.226;2022-10-31T16:40:13;20.70;78.00
17405;DHT22;8820;54.604;18.226;2022-10-31T16:42:41;19.10;84.10
17405;DHT22;8820;54.604;18.226;2022-10-31T16:45:17;18.00;90.40
17405;DHT22;8820;54.604;18.226;2022-10-31T16:47:46;17.20;93.00
17405;DHT22;8820;54.604;18.226;2022-10-31T16:50:17;16.70;94.90
17405;DHT22;8820;54.604;18.226;2022-10-31T16:52:47;16.30;96.40
17405;DHT22;8820;54.604;18.226;2022-10-31T16:55:42;16.00;97.40
17405;DHT22;8820;54.604;18.226;2022-10-31T16:58:18;15.70;98.50
17405;DHT22;8820;54.604;18.226;2022-10-31T17:00:47;15.50;99.30
17405;DHT22;8820;54.604;18.226;2022-10-31T17:03:15;15.40;99.90
17405;DHT22;8820;54.604;18.226;2022-10-31T17:05:44;15.30;99.90
17405;DHT22;8820;54.604;18.226;2022-10-31T17:08:14;15.20;99.90
17405;DHT22;8820;54.604;18.226;2022-10-31T17:10:43;15.10;99.90
17405;DHT22;8820;54.604;18.226;2022-10-31T17:13:17;15.00;99.90
17405;DHT22;8820;54.604;18.226;2022-10-31T17:15:49;15.00;99.90
17405;DHT22;8820;54.604;18.226;2022-10-31T17:18:18;14.80;99.90
17405;DHT22;8820;54.604;18.226;2022-10-31T17:20:56;14.80;99.90
17405;DHT22;8820;54.604;18.226;2022-10-31T17:23:28;14.70;99.90
17405;DHT22;8820;54.604;18.226;2022-10-31T17:25:57;14.70;99.90
17405;DHT22;8820;54.604;18.226;2022-10-31T17:28:25;14.60;99.90
17405;DHT22;8820;54.604;18.226;2022-10-31T17:30:55;14.50;99.90
17405;DHT22;8820;54.604;18.226;2022-10-31T17:33:27;14.40;99.90
17405;DHT22;8820;54.604;18.226;2022-10-31T17:35:58;14.40;99.90
17405;DHT22;8820;54.604;18.226;2022-10-31T17:38:30;14.30;99.90
17405;DHT22;8820;54.604;18.226;2022-10-31T17:41:04;14.30;99.90
17405;DHT22;8820;54.604;18.226;2022-10-31T17:43:35;14.30;99.90
17405;DHT22;8820;54.604;18.226;2022-10-31T17:46:04;14.30;99.90
17405;DHT22;8820;54.604;18.226;2022-10-31T17:48:33;14.30;99.90
17405;DHT22;8820;54.604;18.226;2022-10-31T17:51:04;14.30;99.90
17405;DHT22;8820;54.604;18.226;2022-10-31T17:53:34;14.30;99.90
17405;DHT22;8820;54.604;18.226;2022-10-31T17:56:04;14.30;99.90
17405;DHT22;8820;54.604;18.226;2022-10-31T17:58:33;14.20;99.90
17405;DHT22;8820;54.604;18.226;2022-10-31T18:01:06;14.20;99.90
17405;DHT22;8820;54.604;18.226;2022-10-31T18:03:35;14.20;99.90
17405;DHT22;8820;54.604;18.226;2022-10-31T18:06:05;14.20;99.90
17405;DHT22;8820;54.604;18.226;2022-10-31T18:08:36;14.20;99.90
17405;DHT22;8820;54.604;18.226;2022-10-31T18:11:05;14.10;99.90
17405;DHT22;8820;54.604;18.226;2022-10-31T18:13:36;14.10;99.90
17405;DHT22;8820;54.604;18.226;2022-10-31T18:16:09;14.00;99.90
17405;DHT22;8820;54.604;18.226;2022-10-31T18:18:37;14.00;99.90
17405;DHT22;8820;54.604;18.226;2022-10-31T18:21:06;14.00;99.90
17405;DHT22;8820;54.604;18.226;2022-10-31T18:23:36;13.90;99.90
17405;DHT22;8820;54.604;18.226;2022-10-31T18:26:04;13.90;99.90
17405;DHT22;8820;54.604;18.226;2022-10-31T18:28:32;13.90;99.90
17405;DHT22;8820;54.604;18.226;2022-10-31T18:31:01;13.90;99.90
17405;DHT22;8820;54.604;18.226;2022-10-31T18:33:29;13.90;99.90
17405;DHT22;8820;54.604;18.226;2022-10-31T18:36:03;13.80;99.90
17405;DHT22;8820;54.604;18.226;2022-10-31T18:38:32;13.70;99.90
17405;DHT22;8820;54.604;18.226;2022-10-31T18:41:02;13.70;99.90
17405;DHT22;8820;54.604;18.226;2022-10-31T18:43:31;13.70;99.90
17405;DHT22;8820;54.604;18.226;2022-10-31T18:46:00;13.70;99.90
17405;DHT22;8820;54.604;18.226;2022-10-31T18:48:29;13.70;99.90
17405;DHT22;8820;54.604;18.226;2022-10-31T18:51:01;13.60;99.90
17405;DHT22;8820;54.604;18.226;2022-10-31T18:53:31;13.60;99.90
17405;DHT22;8820;54.604;18.226;2022-10-31T18:55:59;13.50;99.90
17405;DHT22;8820;54.604;18.226;2022-10-31T18:58:31;13.50;99.90
17405;DHT22;8820;54.604;18.226;2022-10-31T19:01:04;13.50;99.90
17405;DHT22;8820;54.604;18.226;2022-10-31T19:03:33;13.50;99.90
17405;DHT22;8820;54.604;18.226;2022-10-31T19:06:02;13.40;99.90
17405;DHT22;8820;54.604;18.226;2022-10-31T19:08:31;13.40;99.90
17405;DHT22;8820;54.604;18.226;2022-10-31T19:11:03;13.40;99.90
17405;DHT22;8820;54.604;18.226;2022-10-31T19:13:34;13.50;99.90
17405;DHT22;8820;54.604;18.226;2022-10-31T19:16:04;13.40;99.90
17405;DHT22;8820;54.604;18.226;2022-10-31T19:18:32;13.40;99.90
17405;DHT22;8820;54.604;18.226;2022-10-31T19:21:04;13.40;99.90
17405;DHT22;8820;54.604;18.226;2022-10-31T19:23:33;13.40;99.90
17405;DHT22;8820;54.604;18.226;2022-10-31T19:26:02;13.40;99.90
17405;DHT22;8820;54.604;18.226;2022-10-31T19:28:31;13.40;99.90
17405;DHT22;8820;54.604;18.226;2022-10-31T19:31:01;13.40;99.90
17405;DHT22;8820;54.604;18.226;2022-10-31T19:33:30;13.50;99.90
17405;DHT22;8820;54.604;18.226;2022-10-31T19:36:01;13.40;99.90
17405;DHT22;8820;54.604;18.226;2022-10-31T19:38:30;13.40;99.90
17405;DHT22;8820;54.604;18.226;2022-10-31T19:41:01;13.40;99.90
17405;DHT22;8820;54.604;18.226;2022-10-31T19:43:30;13.40;99.90
17405;DHT22;8820;54.604;18.226;2022-10-31T19:46:01;13.40;99.90
17405;DHT22;8820;54.604;18.226;2022-10-31T19:48:30;13.40;99.90
17405;DHT22;8820;54.604;18.226;2022-10-31T19:51:00;13.30;99.90
17405;DHT22;8820;54.604;18.226;2022-10-31T19:53:29;13.40;99.90
17405;DHT22;8820;54.604;18.226;2022-10-31T19:55:58;13.30;99.90
17405;DHT22;8820;54.604;18.226;2022-10-31T19:58:27;13.30;99.90
17405;DHT22;8820;54.604;18.226;2022-10-31T20:00:55;13.30;99.90
17405;DHT22;8820;54.604;18.226;2022-10-31T20:03:26;13.30;99.90
17405;DHT22;8820;54.604;18.226;2022-10-31T20:05:54;13.20;99.90
17405;DHT22;8820;54.604;18.226;2022-10-31T20:08:23;13.20;99.90
17405;DHT22;8820;54.604;18.226;2022-10-31T20:10:54;13.10;99.90
17405;DHT22;8820;54.604;18.226;2022-10-31T20:13:24;13.10;99.90
17405;DHT22;8820;54.604;18.226;2022-10-31T20:15:57;13.10;99.90
17405;DHT22;8820;54.604;18.226;2022-10-31T20:18:28;13.10;99.90
17405;DHT22;8820;54.604;18.226;2022-10-31T20:21:01;13.10;99.90
17405;DHT22;8820;54.604;18.226;2022-10-31T20:23:31;13.10;99.90
17405;DHT22;8820;54.604;18.226;2022-10-31T20:26:00;13.10;99.90
17405;DHT22;8820;54.604;18.226;2022-10-31T20:28:29;13.10;99.90
17405;DHT22;8820;54.604;18.226;2022-10-31T20:30:57;13.10;99.90
17405;DHT22;8820;54.604;18.226;2022-10-31T20:33:27;13.10;99.90
17405;DHT22;8820;54.604;18.226;2022-10-31T20:35:55;13.00;99.90
17405;DHT22;8820;54.604;18.226;2022-10-31T20:38:24;13.10;99.90
17405;DHT22;8820;54.604;18.226;2022-10-31T20:40:52;13.10;99.90
17405;DHT22;8820;54.604;18.226;2022-10-31T20:43:21;13.10;99.90
17405;DHT22;8820;54.604;18.226;2022-10-31T20:45:49;13.10;99.90
17405;DHT22;8820;54.604;18.226;2022-10-31T20:48:17;13.10;99.90
17405;DHT22;8820;54.604;18.226;2022-10-31T20:50:55;13.10;99.90
17405;DHT22;8820;54.604;18.226;2022-10-31T20:53:23;13.20;99.90
17405;DHT22;8820;54.604;18.226;2022-10-31T20:55:59;13.20;99.90
17405;DHT22;8820;54.604;18.226;2022-10-31T20:58:31;13.30;99.90
17405;DHT22;8820;54.604;18.226;2022-10-31T21:01:00;13.30;99.90
17405;DHT22;8820;54.604;18.226;2022-10-31T21:03:29;13.30;99.90
17405;DHT22;8820;54.604;18.226;2022-10-31T21:05:59;13.30;99.90
17405;DHT22;8820;54.604;18.226;2022-10-31T21:08:29;13.30;99.90
17405;DHT22;8820;54.604;18.226;2022-10-31T21:10:58;13.30;99.90
17405;DHT22;8820;54.604;18.226;2022-10-31T21:13:27;13.30;99.90
17405;DHT22;8820;54.604;18.226;2022-10-31T21:15:59;13.30;99.90
17405;DHT22;8820;54.604;18.226;2022-10-31T21:18:27;13.30;99.90
17405;DHT22;8820;54.604;18.226;2022-10-31T21:20:57;13.30;99.90
17405;DHT22;8820;54.604;18.226;2022-10-31T21:23:26;13.30;99.90
17405;DHT22;8820;54.604;18.226;2022-10-31T21:25:55;13.40;99.90
17405;DHT22;8820;54.604;18.226;2022-10-31T21:28:23;13.40;99.90
17405;DHT22;8820;54.604;18.226;2022-10-31T21:30:51;13.40;99.90
17405;DHT22;8820;54.604;18.226;2022-10-31T21:33:20;13.40;99.90
17405;DHT22;8820;54.604;18.226;2022-10-31T21:35:48;13.40;99.90
17405;DHT22;8820;54.604;18.226;2022-10-31T21:38:19;13.40;99.90
17405;DHT22;8820;54.604;18.226;2022-10-31T21:40:47;13.30;99.90
17405;DHT22;8820;54.604;18.226;2022-10-31T21:43:15;13.30;99.90
17405;DHT22;8820;54.604;18.226;2022-10-31T21:45:44;13.30;99.90
17405;DHT22;8820;54.604;18.226;2022-10-31T21:48:12;13.40;99.90
17405;DHT22;8820;54.604;18.226;2022-10-31T21:50:41;13.40;99.90
17405;DHT22;8820;54.604;18.226;2022-10-31T21:53:09;13.30;99.90
17405;DHT22;8820;54.604;18.226;2022-10-31T21:56:01;13.30;99.90
17405;DHT22;8820;54.604;18.226;2022-10-31T21:58:29;13.40;99.90
17405;DHT22;8820;54.604;18.226;2022-10-31T22:01:00;13.40;99.90
17405;DHT22;8820;54.604;18.226;2022-10-31T22:03:29;13.40;99.90
17405;DHT22;8820;54.604;18.226;2022-10-31T22:06:01;13.40;99.90
17405;DHT22;8820;54.604;18.226;2022-10-31T22:08:30;13.50;99.90
17405;DHT22;8820;54.604;18.226;2022-10-31T22:11:02;13.50;99.90
17405;DHT22;8820;54.604;18.226;2022-10-31T22:13:31;13.60;99.90
17405;DHT22;8820;54.604;18.226;2022-10-31T22:16:00;13.60;99.90
17405;DHT22;8820;54.604;18.226;2022-10-31T22:18:29;13.60;99.90
17405;DHT22;8820;54.604;18.226;2022-10-31T22:21:00;13.60;99.90
17405;DHT22;8820;54.604;18.226;2022-10-31T22:23:29;13.50;99.90
17405;DHT22;8820;54.604;18.226;2022-10-31T22:26:03;13.50;99.90
17405;DHT22;8820;54.604;18.226;2022-10-31T22:28:32;13.50;99.90
17405;DHT22;8820;54.604;18.226;2022-10-31T22:31:03;13.60;99.90
17405;DHT22;8820;54.604;18.226;2022-10-31T22:33:32;13.50;99.90
